createdAt,value
2022-11-13T00:00:20.415Z,1.92
2022-11-13T00:02:50.646Z,1.88
2022-11-13T00:05:21.115Z,2.15
2022-11-13T00:07:51.404Z,1.83
2022-11-13T00:10:21.419Z,1.90
2022-11-13T00:12:54.486Z,2.00
2022-11-13T00:15:25.126Z,2.10
2022-11-13T00:17:55.041Z,1.90
2022-11-13T00:20:25.064Z,1.60
2022-11-13T00:22:55.072Z,1.80
2022-11-13T00:25:25.617Z,1.90
2022-11-13T00:27:58.040Z,1.83
2022-11-13T00:30:28.546Z,2.08
2022-11-13T00:32:59.004Z,2.00
2022-11-13T00:35:28.998Z,1.90
2022-11-13T00:37:59.456Z,1.90
2022-11-13T00:40:29.802Z,1.90
2022-11-13T00:43:02.051Z,2.13
2022-11-13T00:45:32.419Z,1.70
2022-11-13T00:48:03.193Z,2.00
2022-11-13T00:50:33.535Z,1.80
2022-11-13T00:53:04.053Z,1.95
2022-11-13T00:55:35.172Z,1.90
2022-11-13T00:58:07.739Z,1.90
2022-11-13T01:00:37.720Z,1.80
2022-11-13T01:03:08.562Z,1.90
2022-11-13T01:05:40.152Z,1.88
2022-11-13T01:08:10.935Z,2.00
2022-11-13T01:10:51.926Z,1.92
2022-11-13T01:13:26.033Z,2.00
2022-11-13T01:15:56.573Z,1.90
2022-11-13T01:18:26.651Z,1.90
2022-11-13T01:21:07.464Z,1.80
2022-11-13T01:23:38.269Z,1.67
2022-11-13T01:26:12.032Z,1.70
2022-11-13T01:28:45.923Z,1.90
2022-11-13T01:31:19.246Z,2.00
2022-11-13T01:33:51.027Z,1.95
2022-11-13T01:36:24.849Z,2.03
2022-11-13T01:38:55.044Z,2.08
2022-11-13T01:41:29.893Z,1.90
2022-11-13T01:44:03.607Z,2.05
2022-11-13T01:46:37.070Z,1.90
2022-11-13T01:49:28.025Z,1.90
2022-11-13T01:52:02.251Z,2.00
2022-11-13T01:54:37.897Z,2.00
2022-11-13T01:57:09.454Z,2.00
2022-11-13T01:59:47.975Z,1.92
2022-11-13T02:02:18.969Z,1.90
2022-11-13T02:04:50.306Z,2.05
2022-11-13T02:07:24.486Z,1.90
2022-11-13T02:09:58.930Z,2.08
2022-11-13T02:12:37.711Z,1.92
2022-11-13T02:15:11.962Z,1.80
2022-11-13T02:17:49.963Z,1.90
2022-11-13T02:20:28.812Z,1.77
2022-11-13T02:23:11.584Z,2.20
2022-11-13T02:25:45.868Z,1.83
2022-11-13T02:28:15.858Z,1.80
2022-11-13T02:30:46.343Z,1.73
2022-11-13T02:33:29.750Z,1.98
2022-11-13T02:36:01.013Z,1.95
2022-11-13T02:38:32.150Z,1.63
2022-11-13T02:41:04.983Z,1.77
2022-11-13T02:43:35.648Z,1.98
2022-11-13T02:46:06.018Z,1.95
2022-11-13T02:48:36.459Z,1.88
2022-11-13T02:51:08.164Z,1.75
2022-11-13T02:53:38.557Z,1.73
2022-11-13T02:56:13.979Z,1.75
2022-11-13T02:58:44.410Z,1.90
2022-11-13T03:01:14.502Z,2.20
2022-11-13T03:04:00.258Z,2.20
2022-11-13T03:06:30.259Z,1.90
2022-11-13T03:09:01.080Z,1.80
2022-11-13T03:11:33.113Z,1.77
2022-11-13T03:14:03.586Z,1.92
2022-11-13T03:16:34.160Z,1.80
2022-11-13T03:19:05.274Z,2.08
2022-11-13T03:21:35.824Z,1.65
2022-11-13T03:24:06.051Z,1.70
2022-11-13T03:26:38.387Z,1.85
2022-11-13T03:29:08.734Z,1.88
2022-11-13T03:31:38.694Z,1.85
2022-11-13T03:34:09.226Z,1.90
2022-11-13T03:36:39.186Z,1.80
2022-11-13T03:39:14.185Z,2.42
2022-11-13T03:41:46.754Z,1.90
2022-11-13T03:44:19.123Z,1.85
2022-11-13T03:46:49.550Z,1.90
2022-11-13T03:49:19.978Z,1.85
2022-11-13T03:51:50.203Z,2.00
2022-11-13T03:54:20.833Z,1.80
2022-11-13T03:56:53.531Z,2.00
2022-11-13T03:59:23.601Z,2.00
2022-11-13T04:01:54.078Z,1.85
2022-11-13T04:04:24.717Z,1.77
2022-11-13T04:06:55.519Z,2.05
2022-11-13T04:09:25.942Z,2.10
2022-11-13T04:11:58.322Z,1.65
2022-11-13T04:14:28.602Z,1.90
2022-11-13T04:16:58.819Z,2.22
2022-11-13T04:19:28.968Z,1.85
2022-11-13T04:21:59.086Z,1.90
2022-11-13T04:24:29.744Z,1.92
2022-11-13T04:27:01.279Z,1.95
2022-11-13T04:29:32.521Z,1.88
2022-11-13T04:32:02.994Z,1.95
2022-11-13T04:34:33.312Z,1.92
2022-11-13T04:37:03.820Z,2.03
2022-11-13T04:39:34.260Z,2.13
2022-11-13T04:42:23.315Z,1.70
2022-11-13T04:44:53.654Z,1.88
2022-11-13T04:47:24.113Z,1.92
2022-11-13T04:49:54.120Z,2.08
2022-11-13T04:52:24.971Z,1.90
2022-11-13T04:54:55.394Z,1.90
2022-11-13T04:57:28.023Z,2.05
2022-11-13T04:59:58.407Z,1.98
2022-11-13T05:02:29.139Z,2.00
2022-11-13T05:05:04.577Z,1.92
2022-11-13T05:07:35.553Z,2.08
2022-11-13T05:10:06.780Z,1.80
2022-11-13T05:12:38.891Z,2.05
2022-11-13T05:15:11.342Z,2.05
2022-11-13T05:17:41.789Z,1.92
2022-11-13T05:20:14.081Z,1.92
2022-11-13T05:22:44.313Z,1.92
2022-11-13T05:25:15.108Z,2.20
2022-11-13T05:27:47.622Z,2.10
2022-11-13T05:30:19.355Z,2.20
2022-11-13T05:32:49.467Z,2.03
2022-11-13T05:35:20.094Z,2.25
2022-11-13T05:37:50.645Z,1.90
2022-11-13T05:40:21.726Z,2.03
2022-11-13T05:42:55.824Z,1.90
2022-11-13T05:45:27.098Z,2.13
2022-11-13T05:47:57.537Z,2.20
2022-11-13T05:50:28.101Z,2.08
2022-11-13T05:52:58.749Z,2.15
2022-11-13T05:55:28.785Z,2.10
2022-11-13T05:58:06.930Z,2.30
2022-11-13T06:00:37.491Z,2.00
2022-11-13T06:03:07.295Z,1.95
2022-11-13T06:05:38.665Z,2.20
2022-11-13T06:08:09.545Z,2.20
2022-11-13T06:10:39.575Z,2.00
2022-11-13T06:13:12.644Z,2.20
2022-11-13T06:15:43.189Z,2.00
2022-11-13T06:18:13.200Z,2.22
2022-11-13T06:20:43.351Z,2.05
2022-11-13T06:23:13.243Z,2.20
2022-11-13T06:25:43.859Z,2.33
2022-11-13T06:28:16.749Z,2.28
2022-11-13T06:30:46.529Z,2.10
2022-11-13T06:33:17.083Z,2.20
2022-11-13T06:35:47.459Z,1.95
2022-11-13T06:38:19.399Z,2.08
2022-11-13T06:40:49.477Z,2.00
2022-11-13T06:43:22.469Z,2.15
2022-11-13T06:45:52.910Z,2.05
2022-11-13T06:48:23.403Z,1.90
2022-11-13T06:50:54.436Z,1.90
2022-11-13T06:53:25.058Z,2.28
2022-11-13T06:55:56.823Z,2.15
2022-11-13T06:58:30.071Z,2.20
2022-11-13T07:01:00.797Z,2.22
2022-11-13T07:03:31.044Z,2.05
2022-11-13T07:06:09.354Z,1.90
2022-11-13T07:08:40.326Z,2.00
2022-11-13T07:11:13.157Z,2.00
2022-11-13T07:13:46.145Z,2.10
2022-11-13T07:16:18.602Z,2.25
2022-11-13T07:18:53.756Z,2.25
2022-11-13T07:21:26.003Z,2.22
2022-11-13T07:23:56.497Z,2.08
2022-11-13T07:26:27.276Z,2.20
2022-11-13T07:28:59.809Z,1.90
2022-11-13T07:31:30.255Z,1.98
2022-11-13T07:34:01.187Z,1.88
2022-11-13T07:36:30.810Z,2.20
2022-11-13T07:39:01.284Z,2.05
2022-11-13T07:41:31.395Z,2.35
2022-11-13T07:44:07.954Z,2.10
2022-11-13T07:46:39.038Z,2.20
2022-11-13T07:49:09.056Z,2.30
2022-11-13T07:51:39.425Z,1.90
2022-11-13T07:54:10.274Z,1.92
2022-11-13T07:56:40.408Z,2.03
2022-11-13T07:59:12.001Z,2.10
2022-11-13T08:01:42.433Z,1.85
2022-11-13T08:04:13.054Z,2.17
2022-11-13T08:06:43.084Z,2.03
2022-11-13T08:09:14.031Z,2.03
2022-11-13T08:11:44.616Z,2.10
2022-11-13T08:14:17.357Z,2.00
2022-11-13T08:16:47.288Z,1.92
2022-11-13T08:19:17.815Z,2.03
2022-11-13T08:21:48.206Z,2.28
2022-11-13T08:24:18.698Z,2.10
2022-11-13T08:26:49.562Z,2.17
2022-11-13T08:29:22.170Z,2.08
2022-11-13T08:31:52.184Z,2.22
2022-11-13T08:34:22.931Z,1.90
2022-11-13T08:36:53.429Z,2.20
2022-11-13T08:39:24.014Z,2.17
2022-11-13T08:41:54.866Z,2.15
2022-11-13T08:44:27.550Z,2.10
2022-11-13T08:46:57.272Z,2.22
2022-11-13T08:49:28.150Z,2.10
2022-11-13T08:51:58.187Z,2.10
2022-11-13T08:54:28.654Z,2.13
2022-11-13T08:57:04.704Z,2.30
2022-11-13T08:59:38.056Z,2.10
2022-11-13T09:02:11.482Z,2.10
2022-11-13T09:04:42.477Z,2.30
2022-11-13T09:07:12.946Z,2.20
2022-11-13T09:09:44.892Z,2.17
2022-11-13T09:12:16.621Z,2.05
2022-11-13T09:14:48.334Z,2.38
2022-11-13T09:17:19.312Z,2.20
2022-11-13T09:19:49.911Z,2.25
2022-11-13T09:22:20.477Z,2.40
2022-11-13T09:24:50.942Z,2.30
2022-11-13T09:27:21.515Z,2.38
2022-11-13T09:29:55.731Z,2.53
2022-11-13T09:32:26.600Z,2.25
2022-11-13T09:34:56.702Z,2.20
2022-11-13T09:37:26.861Z,2.30
2022-11-13T09:39:56.885Z,2.30
2022-11-13T09:42:45.070Z,2.35
2022-11-13T09:45:18.818Z,2.10
2022-11-13T09:47:52.423Z,2.10
2022-11-13T09:50:28.980Z,2.05
2022-11-13T09:52:59.824Z,2.30
2022-11-13T09:55:41.193Z,2.15
2022-11-13T09:58:23.962Z,2.00
2022-11-13T10:00:56.372Z,2.20
2022-11-13T10:06:50.043Z,2.20
2022-11-13T10:09:36.923Z,2.10
2022-11-13T10:12:14.228Z,2.20
2022-11-13T10:14:49.117Z,2.10
2022-11-13T10:17:28.826Z,2.25
2022-11-13T10:20:05.568Z,1.98
2022-11-13T10:22:43.286Z,2.28
2022-11-13T10:25:20.357Z,2.13
2022-11-13T10:27:58.487Z,2.05
2022-11-13T10:30:30.421Z,2.22
2022-11-13T10:33:11.344Z,2.17
2022-11-13T10:35:55.898Z,2.20
2022-11-13T10:38:36.330Z,2.20
2022-11-13T10:41:16.893Z,2.30
2022-11-13T10:44:02.138Z,2.40
2022-11-13T10:46:34.905Z,2.47
2022-11-13T10:49:22.062Z,2.15
2022-11-13T10:52:08.430Z,2.30
2022-11-13T10:54:41.430Z,2.33
2022-11-13T10:57:36.945Z,2.42
2022-11-13T11:00:25.225Z,2.50
2022-11-13T11:02:55.883Z,2.10
2022-11-13T11:05:31.666Z,2.40
2022-11-13T11:08:03.383Z,2.25
2022-11-13T11:10:58.222Z,2.42
2022-11-13T11:13:30.063Z,2.28
2022-11-13T11:16:06.954Z,2.38
2022-11-13T11:18:43.711Z,2.35
2022-11-13T11:21:23.790Z,2.60
2022-11-13T11:24:05.269Z,2.70
2022-11-13T11:26:44.923Z,2.50
2022-11-13T11:29:27.054Z,2.38
2022-11-13T11:32:04.626Z,2.25
2022-11-13T11:34:44.931Z,2.22
2022-11-13T11:37:21.807Z,2.45
2022-11-13T11:40:00.047Z,2.38
2022-11-13T11:42:38.585Z,2.53
2022-11-13T11:45:30.463Z,2.40
2022-11-13T11:48:04.653Z,2.55
2022-11-13T11:50:46.740Z,2.60
2022-11-13T11:53:32.723Z,2.45
2022-11-13T11:56:29.062Z,2.50
2022-11-13T11:59:33.593Z,2.33
2022-11-13T12:02:46.774Z,2.55
2022-11-13T12:05:26.670Z,2.28
2022-11-13T12:08:17.721Z,2.45
2022-11-13T12:10:59.391Z,2.60
2022-11-13T12:13:33.897Z,2.47
2022-11-13T12:16:24.637Z,2.40
2022-11-13T12:19:04.909Z,2.70
2022-11-13T12:21:52.711Z,2.45
2022-11-13T12:24:48.318Z,2.40
2022-11-13T12:27:33.821Z,2.60
2022-11-13T12:30:15.969Z,3.03
2022-11-13T12:33:14.459Z,3.33
2022-11-13T12:35:49.933Z,2.95
2022-11-13T12:38:39.779Z,2.85
2022-11-13T12:41:30.203Z,2.63
2022-11-13T12:44:42.297Z,2.47
2022-11-13T12:47:13.952Z,2.22
2022-11-13T12:49:44.604Z,2.42
2022-11-13T12:52:24.807Z,2.40
2022-11-13T12:55:06.961Z,2.30
2022-11-13T12:57:39.280Z,2.28
2022-11-13T13:00:29.959Z,2.30
2022-11-13T13:03:30.127Z,2.13
2022-11-13T13:06:27.864Z,2.30
2022-11-13T13:09:28.105Z,2.25
2022-11-13T13:12:09.792Z,2.30
2022-11-13T13:15:09.043Z,2.40
2022-11-13T13:17:41.815Z,2.30
2022-11-13T13:20:37.366Z,2.60
2022-11-13T13:23:13.046Z,2.50
2022-11-13T13:25:44.434Z,2.42
2022-11-13T13:28:22.509Z,2.58
2022-11-13T13:31:04.820Z,2.22
2022-11-13T13:34:05.563Z,2.35
2022-11-13T13:37:06.264Z,2.30
2022-11-13T13:40:02.038Z,2.60
2022-11-13T13:42:58.713Z,2.03
2022-11-13T13:45:43.603Z,2.25
2022-11-13T13:48:16.878Z,2.15
2022-11-13T13:50:53.465Z,2.10
2022-11-13T13:53:29.616Z,2.50
2022-11-13T13:56:01.947Z,2.25
2022-11-13T13:58:37.784Z,2.20
2022-11-13T14:01:19.655Z,2.33
2022-11-13T14:03:52.746Z,2.05
2022-11-13T14:06:26.609Z,2.17
2022-11-13T14:08:56.897Z,2.20
2022-11-13T14:11:30.179Z,2.08
2022-11-13T14:14:11.730Z,2.15
2022-11-13T14:16:54.055Z,2.20
2022-11-13T14:19:25.123Z,2.15
2022-11-13T14:22:06.959Z,2.25
2022-11-13T14:24:48.846Z,2.20
2022-11-13T14:27:26.009Z,2.13
2022-11-13T14:30:00.810Z,2.10
2022-11-13T14:32:36.234Z,2.33
2022-11-13T14:35:10.201Z,2.10
2022-11-13T14:37:48.996Z,2.13
2022-11-13T14:40:26.159Z,2.47
2022-11-13T14:43:01.562Z,2.28
2022-11-13T14:45:34.235Z,2.55
2022-11-13T14:48:18.998Z,2.35
2022-11-13T14:50:55.389Z,2.28
2022-11-13T14:53:35.466Z,2.38
2022-11-13T14:56:09.674Z,2.20
2022-11-13T14:58:47.548Z,2.47
2022-11-13T15:01:21.158Z,2.60
2022-11-13T15:03:52.961Z,2.40
2022-11-13T15:06:25.527Z,2.55
2022-11-13T15:09:01.113Z,2.40
2022-11-13T15:11:31.853Z,2.25
2022-11-13T15:14:04.534Z,2.30
2022-11-13T15:16:36.290Z,2.55
2022-11-13T15:19:14.031Z,2.20
2022-11-13T15:22:05.475Z,2.58
2022-11-13T15:24:39.133Z,2.33
2022-11-13T15:27:10.285Z,2.50
2022-11-13T15:29:41.276Z,2.58
2022-11-13T15:32:14.564Z,2.33
2022-11-13T15:34:45.063Z,2.10
2022-11-13T15:37:18.130Z,2.38
2022-11-13T15:39:50.908Z,2.35
2022-11-13T15:42:29.998Z,2.38
2022-11-13T15:45:00.625Z,2.38
2022-11-13T15:47:35.309Z,3.03
2022-11-13T15:50:16.055Z,2.67
2022-11-13T15:52:51.832Z,2.28
2022-11-13T15:55:32.731Z,2.58
2022-11-13T15:58:03.620Z,2.28
2022-11-13T16:00:34.162Z,2.58
2022-11-13T16:03:11.406Z,2.70
2022-11-13T16:05:43.158Z,2.53
2022-11-13T16:08:17.395Z,2.40
2022-11-13T16:10:49.850Z,2.45
2022-11-13T16:13:19.632Z,2.50
2022-11-13T16:15:50.521Z,2.45
2022-11-13T16:18:29.195Z,2.55
2022-11-13T16:21:00.230Z,2.30
2022-11-13T16:23:31.157Z,2.50
2022-11-13T16:26:05.039Z,2.60
2022-11-13T16:28:52.754Z,2.25
2022-11-13T16:31:26.682Z,2.40
2022-11-13T16:33:57.242Z,2.60
2022-11-13T16:36:28.765Z,2.45
2022-11-13T16:38:59.719Z,2.38
2022-11-13T16:41:34.481Z,2.42
2022-11-13T16:44:05.487Z,2.65
2022-11-13T16:46:42.719Z,2.45
2022-11-13T16:49:19.739Z,2.53
2022-11-13T16:51:52.023Z,2.30
2022-11-13T16:54:22.776Z,2.30
2022-11-13T16:56:55.658Z,2.38
2022-11-13T16:59:26.226Z,2.45
2022-11-13T17:01:59.809Z,2.58
2022-11-13T17:04:29.815Z,2.67
2022-11-13T17:06:59.565Z,2.67
2022-11-13T17:09:30.439Z,2.78
2022-11-13T17:12:02.415Z,2.45
2022-11-13T17:14:35.104Z,2.70
2022-11-13T17:17:06.068Z,2.60
2022-11-13T17:19:41.209Z,2.30
2022-11-13T17:22:11.813Z,2.17
2022-11-13T17:24:43.336Z,2.33
2022-11-13T17:27:15.744Z,2.40
2022-11-13T17:29:46.248Z,2.42
2022-11-13T17:32:16.380Z,2.25
2022-11-13T17:34:47.588Z,2.53
2022-11-13T17:37:20.572Z,2.35
2022-11-13T17:39:54.027Z,2.40
2022-11-13T17:42:25.896Z,2.28
2022-11-13T17:44:56.268Z,2.42
2022-11-13T17:47:26.887Z,2.40
2022-11-13T17:50:02.406Z,2.25
2022-11-13T17:52:36.470Z,2.38
2022-11-13T17:55:11.151Z,2.50
2022-11-13T17:57:43.487Z,2.40
2022-11-13T18:00:15.398Z,2.30
2022-11-13T18:02:46.144Z,2.40
2022-11-13T18:05:16.962Z,2.28
2022-11-13T18:07:48.098Z,2.45
2022-11-13T18:10:20.499Z,2.60
2022-11-13T18:12:53.187Z,2.60
2022-11-13T18:15:24.079Z,2.50
2022-11-13T18:17:55.517Z,2.30
2022-11-13T18:20:25.927Z,2.50
2022-11-13T18:22:55.853Z,2.33
2022-11-13T18:25:26.556Z,2.22
2022-11-13T18:27:59.181Z,2.30
2022-11-13T18:30:29.434Z,2.50
2022-11-13T18:32:59.621Z,2.47
2022-11-13T18:35:30.356Z,2.45
2022-11-13T18:38:00.842Z,2.38
2022-11-13T18:40:31.410Z,2.10
2022-11-13T18:43:05.476Z,2.40
2022-11-13T18:45:35.885Z,2.38
2022-11-13T18:48:06.993Z,2.88
2022-11-13T18:50:37.913Z,2.70
2022-11-13T18:53:08.492Z,2.80
2022-11-13T18:55:44.262Z,2.67
2022-11-13T18:58:17.363Z,2.63
2022-11-13T19:00:48.673Z,2.42
2022-11-13T19:03:26.117Z,2.40
2022-11-13T19:05:56.645Z,2.63
2022-11-13T19:08:27.597Z,2.35
2022-11-13T19:10:58.251Z,2.60
2022-11-13T19:13:30.820Z,2.55
2022-11-13T19:16:06.769Z,2.70
2022-11-13T19:18:37.782Z,2.67
2022-11-13T19:21:09.884Z,2.60
2022-11-13T19:23:40.821Z,2.55
2022-11-13T19:26:12.215Z,2.50
2022-11-13T19:28:45.343Z,2.55
2022-11-13T19:31:36.462Z,2.50
2022-11-13T19:34:10.328Z,2.38
2022-11-13T19:36:42.399Z,2.40
2022-11-13T19:39:12.768Z,2.45
2022-11-13T19:41:47.543Z,2.42
2022-11-13T19:44:20.087Z,2.70
2022-11-13T19:46:51.935Z,2.58
2022-11-13T19:49:21.742Z,2.60
2022-11-13T19:51:53.731Z,2.53
2022-11-13T19:54:24.804Z,2.78
2022-11-13T19:56:55.378Z,2.42
2022-11-13T19:59:27.982Z,2.40
2022-11-13T20:01:57.676Z,2.90
2022-11-13T20:04:28.688Z,2.45
2022-11-13T20:06:59.616Z,2.60
2022-11-13T20:09:32.124Z,2.70
2022-11-13T20:12:03.029Z,2.55
2022-11-13T20:14:38.057Z,2.60
2022-11-13T20:17:09.291Z,2.65
2022-11-13T20:19:39.311Z,2.65
2022-11-13T20:22:09.473Z,2.53
2022-11-13T20:24:40.270Z,2.78
2022-11-13T20:27:11.000Z,2.58
2022-11-13T20:29:43.493Z,2.38
2022-11-13T20:32:14.237Z,2.47
2022-11-13T20:34:44.846Z,2.53
2022-11-13T20:37:15.053Z,2.42
2022-11-13T20:39:45.777Z,2.42
2022-11-13T20:42:15.972Z,2.45
2022-11-13T20:44:47.689Z,2.50
2022-11-13T20:47:17.444Z,2.47
2022-11-13T20:49:47.909Z,2.42
2022-11-13T20:52:17.960Z,2.42
2022-11-13T20:54:47.624Z,2.70
2022-11-13T20:57:19.822Z,2.55
2022-11-13T20:59:52.233Z,2.65
2022-11-13T21:02:22.041Z,2.60
2022-11-13T21:04:52.867Z,2.63
2022-11-13T21:07:23.116Z,2.75
2022-11-13T21:09:53.875Z,2.45
2022-11-13T21:12:23.946Z,2.50
2022-11-13T21:14:56.905Z,2.65
2022-11-13T21:17:26.576Z,2.47
2022-11-13T21:19:57.869Z,2.55
2022-11-13T21:22:28.536Z,2.70
2022-11-13T21:24:59.256Z,2.67
2022-11-13T21:27:30.445Z,2.90
2022-11-13T21:30:03.380Z,3.15
2022-11-13T21:32:34.022Z,2.80
2022-11-13T21:35:04.615Z,2.75
2022-11-13T21:37:36.578Z,2.88
2022-11-13T21:40:07.791Z,2.55
2022-11-13T21:42:39.080Z,2.60
2022-11-13T21:45:13.382Z,2.78
2022-11-13T21:47:44.397Z,3.08
2022-11-13T21:50:15.332Z,2.65
2022-11-13T21:52:45.308Z,2.47
2022-11-13T21:55:16.610Z,2.63
2022-11-13T21:57:47.923Z,2.90
2022-11-13T22:00:21.864Z,2.72
2022-11-13T22:03:00.096Z,3.00
2022-11-13T22:05:30.893Z,2.63
2022-11-13T22:08:04.043Z,2.83
2022-11-13T22:10:34.785Z,2.90
2022-11-13T22:13:05.474Z,2.78
2022-11-13T22:15:37.721Z,2.65
2022-11-13T22:18:08.454Z,2.88
2022-11-13T22:20:38.949Z,2.97
2022-11-13T22:23:09.081Z,3.00
2022-11-13T22:25:39.674Z,3.10
2022-11-13T22:28:09.978Z,3.15
2022-11-13T22:30:42.337Z,3.08
2022-11-13T22:33:12.433Z,2.90
2022-11-13T22:35:43.021Z,3.10
2022-11-13T22:38:13.825Z,2.95
2022-11-13T22:40:44.303Z,3.00
2022-11-13T22:43:14.484Z,3.15
2022-11-13T22:45:46.682Z,3.10
2022-11-13T22:48:16.664Z,2.90
2022-11-13T22:50:46.276Z,3.13
2022-11-13T22:53:16.959Z,3.08
2022-11-13T22:55:47.055Z,2.97
2022-11-13T22:58:17.166Z,3.00
2022-11-13T23:00:49.839Z,3.17
2022-11-13T23:03:20.604Z,3.30
2022-11-13T23:05:51.324Z,3.40
2022-11-13T23:08:22.051Z,3.60
2022-11-13T23:10:56.133Z,3.58
2022-11-13T23:13:26.789Z,3.33
2022-11-13T23:15:59.008Z,3.78
2022-11-13T23:18:30.058Z,3.88
2022-11-13T23:21:01.160Z,3.50
2022-11-13T23:23:32.150Z,3.80
2022-11-13T23:26:02.935Z,3.45
2022-11-13T23:28:33.536Z,4.00
2022-11-13T23:31:06.858Z,3.88
2022-11-13T23:33:38.556Z,4.13
2022-11-13T23:36:11.427Z,4.13
2022-11-13T23:38:42.173Z,3.83
2022-11-13T23:41:12.979Z,3.88
2022-11-13T23:46:35.440Z,4.03
2022-11-13T23:49:06.170Z,4.05
2022-11-13T23:51:36.627Z,4.10
2022-11-13T23:54:07.416Z,4.25
2022-11-13T23:56:37.932Z,3.88
2022-11-13T23:59:08.827Z,3.92
